createdAt,value
2022-08-04T00:04:17.913Z,2.60
2022-08-04T00:09:28.055Z,2.97
2022-08-04T00:14:38.329Z,2.70
2022-08-04T00:19:48.554Z,2.67
2022-08-04T00:24:57.406Z,2.67
2022-08-04T00:30:05.906Z,2.73
2022-08-04T00:35:16.487Z,3.03
2022-08-04T00:40:27.179Z,2.83
2022-08-04T00:45:35.759Z,2.70
2022-08-04T00:50:47.416Z,2.60
2022-08-04T00:55:57.804Z,2.80
2022-08-04T01:01:07.844Z,2.70
2022-08-04T01:06:18.063Z,2.90
2022-08-04T01:11:28.245Z,2.77
2022-08-04T01:16:38.399Z,2.80
2022-08-04T01:21:48.604Z,2.77
2022-08-04T01:26:58.864Z,3.07
2022-08-04T01:32:09.371Z,3.13
2022-08-04T01:37:19.807Z,2.90
2022-08-04T01:42:32.261Z,2.90
2022-08-04T01:47:42.834Z,2.90
2022-08-04T01:52:52.118Z,3.00
2022-08-04T01:58:02.216Z,2.80
2022-08-04T02:03:10.835Z,2.80
2022-08-04T02:08:20.215Z,2.90
2022-08-04T02:13:30.462Z,2.87
2022-08-04T02:18:40.682Z,3.00
2022-08-04T02:23:52.711Z,3.10
2022-08-04T02:29:02.899Z,2.63
2022-08-04T02:34:12.715Z,3.20
2022-08-04T02:39:22.296Z,3.07
2022-08-04T02:44:32.034Z,3.53
2022-08-04T02:49:41.207Z,3.03
2022-08-04T02:54:51.314Z,3.10
2022-08-04T03:00:01.641Z,3.30
2022-08-04T03:05:12.171Z,3.17
2022-08-04T03:10:22.359Z,3.33
2022-08-04T03:15:34.749Z,3.07
2022-08-04T03:20:45.184Z,3.17
2022-08-04T03:25:56.985Z,3.73
2022-08-04T03:31:05.748Z,3.30
2022-08-04T03:36:16.192Z,3.37
2022-08-04T03:41:58.203Z,3.33
2022-08-04T03:46:38.432Z,3.33
2022-08-04T03:51:50.624Z,3.23
2022-08-04T03:56:59.609Z,3.50
2022-08-04T04:02:08.315Z,3.30
2022-08-04T04:07:24.484Z,3.57
2022-08-04T04:12:31.414Z,3.27
2022-08-04T04:17:42.009Z,3.30
2022-08-04T04:22:52.445Z,3.43
2022-08-04T04:28:45.507Z,3.80
2022-08-04T04:33:21.507Z,3.50
2022-08-04T04:38:34.186Z,3.83
2022-08-04T04:43:52.239Z,3.20
2022-08-04T04:48:59.642Z,3.67
2022-08-04T04:54:23.042Z,3.50
2022-08-04T04:59:37.755Z,3.77
2022-08-04T05:04:46.201Z,3.60
2022-08-04T05:09:55.530Z,3.30
2022-08-04T05:15:06.146Z,3.60
2022-08-04T05:20:15.368Z,3.43
2022-08-04T05:25:26.970Z,3.30
2022-08-04T05:30:45.994Z,3.60
2022-08-04T05:36:18.397Z,3.57
2022-08-04T05:41:09.462Z,3.50
2022-08-04T05:46:22.178Z,3.53
2022-08-04T05:51:38.940Z,3.67
2022-08-04T05:56:58.114Z,3.60
2022-08-04T06:02:13.302Z,3.43
2022-08-04T06:07:24.886Z,3.90
2022-08-04T06:12:39.902Z,3.77
2022-08-04T06:18:32.817Z,3.50
2022-08-04T06:23:03.214Z,4.00
2022-08-04T06:28:13.536Z,3.60
2022-08-04T06:33:32.648Z,3.60
2022-08-04T06:38:58.297Z,3.67
2022-08-04T06:44:01.973Z,3.80
2022-08-04T06:49:11.607Z,3.73
2022-08-04T06:54:20.516Z,3.80
2022-08-04T06:59:32.231Z,3.77
2022-08-04T07:04:41.642Z,3.80
2022-08-04T07:09:49.962Z,4.07
2022-08-04T07:14:59.724Z,4.00
2022-08-04T07:20:09.465Z,3.73
2022-08-04T07:25:18.656Z,3.90
2022-08-04T07:30:31.579Z,4.00
2022-08-04T07:36:09.680Z,4.17
2022-08-04T07:40:52.292Z,3.80
2022-08-04T07:46:05.193Z,3.80
2022-08-04T07:51:14.418Z,4.00
2022-08-04T07:56:24.610Z,4.20
2022-08-04T08:01:39.548Z,4.07
2022-08-04T08:06:49.698Z,3.60
2022-08-04T08:12:37.593Z,4.00
2022-08-04T08:17:14.764Z,4.00
2022-08-04T08:22:26.571Z,3.87
2022-08-04T08:27:39.003Z,4.20
2022-08-04T08:32:53.844Z,3.70
2022-08-04T08:38:06.985Z,4.23
2022-08-04T08:44:06.271Z,3.77
2022-08-04T08:48:30.495Z,3.97
2022-08-04T08:53:40.246Z,4.23
2022-08-04T08:58:49.674Z,4.00
2022-08-04T09:04:03.015Z,4.13
2022-08-04T09:09:13.811Z,4.03
2022-08-04T09:14:25.775Z,3.60
2022-08-04T09:19:37.605Z,3.90
2022-08-04T09:24:47.821Z,4.13
2022-08-04T09:29:59.353Z,3.87
2022-08-04T09:35:15.673Z,3.70
2022-08-04T09:40:35.690Z,3.83
2022-08-04T09:45:44.281Z,3.55
2022-08-04T09:50:55.680Z,3.90
2022-08-04T09:56:13.882Z,3.60
2022-08-04T10:01:46.644Z,3.50
2022-08-04T10:07:16.980Z,4.00
2022-08-04T10:13:07.387Z,3.77
2022-08-04T10:18:23.408Z,3.67
2022-08-04T10:23:55.120Z,3.60
2022-08-04T10:28:54.848Z,3.67
2022-08-04T10:34:06.701Z,4.08
2022-08-04T10:39:42.011Z,3.80
2022-08-04T10:44:42.327Z,4.05
2022-08-04T10:49:51.414Z,4.53
2022-08-04T10:55:06.795Z,4.10
2022-08-04T11:00:19.491Z,3.85
2022-08-04T11:05:28.298Z,4.30
2022-08-04T11:10:39.811Z,4.42
2022-08-04T11:15:51.270Z,3.95
2022-08-04T11:21:04.966Z,4.22
2022-08-04T11:26:20.193Z,4.40
2022-08-04T11:31:30.989Z,4.35
2022-08-04T11:36:40.124Z,4.37
2022-08-04T11:41:50.768Z,4.53
2022-08-04T11:47:02.056Z,4.20
2022-08-04T11:52:13.014Z,3.60
2022-08-04T11:57:25.808Z,4.10
2022-08-04T12:02:34.780Z,4.10
2022-08-04T12:07:46.364Z,4.25
2022-08-04T12:12:57.482Z,4.10
2022-08-04T12:18:09.514Z,4.17
2022-08-04T12:23:23.062Z,4.12
2022-08-04T12:28:52.619Z,4.20
2022-08-04T12:34:06.000Z,4.30
2022-08-04T12:38:57.166Z,4.40
2022-08-04T12:44:33.289Z,4.25
2022-08-04T12:49:22.816Z,4.40
2022-08-04T12:54:35.835Z,4.12
2022-08-04T12:59:47.706Z,4.47
2022-08-04T13:05:02.087Z,4.33
2022-08-04T13:10:12.632Z,4.50
2022-08-04T13:15:24.455Z,4.00
2022-08-04T13:20:48.146Z,4.60
2022-08-04T13:26:42.821Z,4.10
2022-08-04T13:31:13.866Z,4.20
2022-08-04T13:36:26.606Z,4.47
2022-08-04T13:41:35.908Z,4.83
2022-08-04T13:46:50.543Z,4.50
2022-08-04T13:51:59.516Z,5.00
2022-08-04T13:57:10.704Z,4.80
2022-08-04T14:02:21.607Z,5.03
2022-08-04T14:07:32.216Z,4.90
2022-08-04T14:12:46.167Z,5.20
2022-08-04T14:17:51.491Z,4.83
2022-08-04T14:23:01.705Z,5.25
2022-08-04T14:28:08.837Z,5.03
2022-08-04T14:34:02.816Z,5.20
2022-08-04T14:38:24.462Z,4.97
2022-08-04T14:43:31.792Z,5.00
2022-08-04T14:48:43.352Z,5.30
2022-08-04T14:53:50.662Z,5.08
2022-08-04T14:59:02.284Z,5.70
2022-08-04T15:04:30.050Z,6.93
2022-08-04T15:09:37.967Z,6.17
2022-08-04T15:14:45.721Z,6.03
2022-08-04T15:19:55.690Z,6.10
2022-08-04T15:25:01.987Z,5.87
2022-08-04T15:30:13.475Z,5.87
2022-08-04T15:35:27.949Z,5.13
2022-08-04T15:40:34.802Z,6.40
2022-08-04T15:46:04.090Z,6.27
2022-08-04T15:50:56.358Z,6.43
2022-08-04T15:56:04.106Z,6.73
2022-08-04T16:01:14.036Z,6.90
2022-08-04T16:06:20.581Z,6.90
2022-08-04T16:11:31.532Z,6.90
2022-08-04T16:16:38.997Z,7.20
2022-08-04T16:21:49.932Z,6.63
2022-08-04T16:26:58.902Z,6.93
2022-08-04T16:32:06.572Z,5.80
2022-08-04T16:37:15.443Z,5.67
2022-08-04T16:42:25.371Z,6.17
2022-08-04T16:47:35.368Z,6.60
2022-08-04T16:52:46.111Z,6.50
2022-08-04T16:57:56.483Z,6.03
2022-08-04T17:03:05.860Z,5.33
2022-08-04T17:08:30.656Z,4.50
2022-08-04T17:14:03.551Z,4.73
2022-08-04T17:18:37.827Z,5.13
2022-08-04T17:24:16.595Z,5.43
2022-08-04T17:28:58.271Z,4.67
2022-08-04T17:34:13.841Z,4.27
2022-08-04T17:39:21.416Z,4.00
2022-08-04T17:44:31.871Z,4.50
2022-08-04T17:49:52.883Z,4.10
2022-08-04T17:54:48.048Z,4.30
2022-08-04T17:59:59.857Z,4.70
2022-08-04T18:05:10.594Z,3.87
2022-08-04T18:10:30.994Z,4.30
2022-08-04T18:15:26.564Z,7.23
2022-08-04T18:20:36.167Z,4.90
2022-08-04T18:25:51.277Z,4.10
2022-08-04T18:30:56.360Z,4.40
2022-08-04T18:36:35.478Z,4.20
2022-08-04T18:41:12.905Z,4.17
2022-08-04T18:46:20.249Z,3.90
2022-08-04T18:51:31.104Z,4.20
2022-08-04T18:56:37.474Z,3.90
2022-08-04T19:02:12.382Z,3.63
2022-08-04T19:06:54.283Z,4.40
2022-08-04T19:12:01.798Z,4.03
2022-08-04T19:17:22.206Z,3.80
2022-08-04T19:22:35.687Z,3.90
2022-08-04T19:27:38.514Z,3.90
2022-08-04T19:32:37.467Z,3.63
2022-08-04T19:37:56.771Z,4.23
2022-08-04T19:43:04.858Z,3.77
2022-08-04T19:48:16.560Z,3.60
2022-08-04T19:53:19.314Z,3.63
2022-08-04T19:58:26.193Z,3.50
2022-08-04T20:04:09.813Z,3.73
2022-08-04T20:08:48.617Z,4.23
2022-08-04T20:13:54.744Z,3.80
2022-08-04T20:19:03.729Z,3.57
2022-08-04T20:24:41.516Z,3.40
2022-08-04T20:29:20.683Z,3.50
2022-08-04T20:34:26.939Z,3.63
2022-08-04T20:39:34.031Z,3.83
2022-08-04T20:44:42.243Z,3.60
2022-08-04T20:49:50.393Z,3.60
2022-08-04T20:54:57.389Z,3.30
2022-08-04T21:00:05.920Z,3.47
2022-08-04T21:05:12.922Z,3.30
2022-08-04T21:10:21.952Z,3.37
2022-08-04T21:15:58.756Z,3.33
2022-08-04T21:20:42.386Z,3.20
2022-08-04T21:25:49.914Z,3.80
2022-08-04T21:30:56.116Z,3.17
2022-08-04T21:36:02.915Z,3.10
2022-08-04T21:41:10.394Z,3.33
2022-08-04T21:46:18.999Z,3.43
2022-08-04T21:52:00.188Z,3.10
2022-08-04T21:56:38.005Z,3.37
2022-08-04T22:01:52.031Z,3.23
2022-08-04T22:06:53.647Z,3.33
2022-08-04T22:17:13.712Z,3.40
2022-08-04T22:22:25.412Z,3.00
2022-08-04T22:27:28.862Z,3.20
2022-08-04T22:32:36.918Z,3.13
2022-08-04T22:37:48.658Z,3.00
2022-08-04T22:42:52.424Z,2.70
2022-08-04T22:47:59.238Z,3.00
2022-08-04T22:53:06.437Z,2.70
2022-08-04T22:58:13.890Z,3.10
2022-08-04T23:03:37.125Z,3.00
2022-08-04T23:08:30.040Z,2.73
2022-08-04T23:13:38.705Z,2.37
2022-08-04T23:18:49.148Z,2.87
2022-08-04T23:24:02.189Z,3.00
2022-08-04T23:29:04.300Z,2.80
2022-08-04T23:34:12.103Z,2.70
2022-08-04T23:39:19.750Z,2.77
2022-08-04T23:44:28.093Z,2.80
2022-08-04T23:49:43.866Z,2.90
2022-08-04T23:54:44.205Z,3.03
2022-08-04T23:59:55.048Z,2.80
